Time;durP1;ratioP1;P1;durP2;ratioP2;P2;SDS_P1;SDS_P2;PMS_P1;PMS_P2;Temp;Humidity;BMP_temperature;BMP_pressure;BME280_temperature;BME280_humidity;BME280_pressure;Samples;Min_cycle;Max_cycle;Signal;HPM_P1;HPM_P2
2023/12/25 00:01:04;;;;;;;12.43;8.88;;;21.70;99.90;;;;;;5051567;28;20025;-53
2023/12/25 00:03:31;;;;;;;11.57;7.78;;;21.70;99.90;;;;;;5051774;28;20037;-53
2023/12/25 00:05:57;;;;;;;10.13;8.30;;;21.70;99.90;;;;;;5051551;28;20072;-53
2023/12/25 00:08:23;;;;;;;9.18;7.97;;;21.70;99.90;;;;;;5051736;28;20456;-53
2023/12/25 00:10:48;;;;;;;10.02;8.02;;;21.70;99.90;;;;;;5051797;28;20104;-53
2023/12/25 00:13:14;;;;;;;10.48;9.00;;;21.60;99.90;;;;;;5051918;28;20449;-52
2023/12/25 00:15:40;;;;;;;10.60;8.07;;;21.60;99.90;;;;;;5051518;28;20106;-52
2023/12/25 00:18:06;;;;;;;11.68;8.85;;;21.60;99.90;;;;;;5050123;28;20132;-53
2023/12/25 00:20:32;;;;;;;10.95;8.68;;;21.60;99.90;;;;;;5051563;28;20029;-53
2023/12/25 00:22:58;;;;;;;11.88;7.88;;;21.60;99.90;;;;;;5051791;28;20155;-53
2023/12/25 00:25:24;;;;;;;12.02;8.80;;;21.60;99.90;;;;;;5054361;28;20492;-54
2023/12/25 00:27:50;;;;;;;11.52;9.07;;;21.50;99.90;;;;;;5055395;28;20037;-53
2023/12/25 00:30:16;;;;;;;9.18;7.90;;;21.50;99.90;;;;;;5055067;28;20029;-53
2023/12/25 00:32:42;;;;;;;10.30;8.57;;;21.50;99.90;;;;;;5055033;28;20025;-53
2023/12/25 00:35:08;;;;;;;9.85;8.27;;;21.50;99.90;;;;;;5053970;28;20025;-53
2023/12/25 00:37:34;;;;;;;12.52;9.07;;;21.50;99.90;;;;;;5055075;28;20021;-53
2023/12/25 00:39:59;;;;;;;9.73;8.65;;;21.50;99.90;;;;;;5054923;28;20067;-53
2023/12/25 00:42:25;;;;;;;11.10;8.38;;;21.50;99.90;;;;;;5054978;28;20081;-53
2023/12/25 00:44:51;;;;;;;9.75;8.18;;;21.40;99.90;;;;;;5055092;28;20125;-53
2023/12/25 00:47:17;;;;;;;8.95;7.88;;;21.40;99.90;;;;;;5054826;28;20054;-53
2023/12/25 00:49:42;;;;;;;10.40;8.18;;;21.40;99.90;;;;;;5053488;28;20036;-53
2023/12/25 00:52:08;;;;;;;9.80;8.38;;;21.40;99.90;;;;;;5054877;28;20136;-54
2023/12/25 00:54:36;;;;;;;10.65;8.02;;;21.40;99.90;;;;;;5054819;28;20021;-53
2023/12/25 00:57:02;;;;;;;10.23;8.10;;;21.40;99.90;;;;;;5054610;28;20469;-53
2023/12/25 00:59:28;;;;;;;9.43;7.63;;;21.40;99.90;;;;;;5054642;28;20028;-53
2023/12/25 01:01:53;;;;;;;10.98;8.52;;;21.40;99.90;;;;;;5055068;28;20049;-53
2023/12/25 01:04:19;;;;;;;10.57;8.00;;;21.30;99.90;;;;;;5053353;28;20052;-53
2023/12/25 01:06:45;;;;;;;9.00;7.70;;;21.30;99.90;;;;;;5054471;28;20076;-54
2023/12/25 01:09:11;;;;;;;9.93;7.82;;;21.30;99.90;;;;;;5054426;28;20492;-53
2023/12/25 01:11:41;;;;;;;11.80;8.43;;;21.30;99.90;;;;;;5054425;28;20025;-53
2023/12/25 01:14:07;;;;;;;8.85;7.53;;;21.30;99.90;;;;;;5054304;28;20478;-53
2023/12/25 01:16:33;;;;;;;9.43;7.03;;;21.30;99.90;;;;;;5054239;28;20021;-52
2023/12/25 01:18:59;;;;;;;10.43;8.20;;;21.30;99.90;;;;;;5054280;28;20043;-53
2023/12/25 01:21:25;;;;;;;9.40;7.95;;;21.30;99.90;;;;;;5054479;28;20096;-53
2023/12/25 01:23:51;;;;;;;8.68;7.50;;;21.30;99.90;;;;;;5054478;28;20029;-53
2023/12/25 01:26:18;;;;;;;8.75;7.75;;;21.20;99.90;;;;;;5052876;28;20047;-52
2023/12/25 01:28:44;;;;;;;8.03;6.63;;;21.20;99.90;;;;;;5054056;28;20036;-53
2023/12/25 01:31:10;;;;;;;8.68;7.10;;;21.20;99.90;;;;;;5053953;28;20025;-53
2023/12/25 01:33:36;;;;;;;8.85;7.63;;;21.10;99.90;;;;;;5053901;28;20078;-53
2023/12/25 01:36:02;;;;;;;10.00;7.28;;;21.20;99.90;;;;;;5053710;28;20028;-53
2023/12/25 01:38:27;;;;;;;9.85;7.82;;;21.20;99.90;;;;;;5053886;28;20100;-53
2023/12/25 01:40:53;;;;;;;9.45;8.02;;;21.10;99.90;;;;;;5053993;28;20021;-51
2023/12/25 01:43:19;;;;;;;9.43;7.50;;;21.20;99.90;;;;;;5053704;28;20082;-52
2023/12/25 01:45:45;;;;;;;10.43;7.55;;;21.10;99.90;;;;;;5053656;28;20041;-52
2023/12/25 01:48:11;;;;;;;9.48;7.40;;;21.10;99.90;;;;;;5053750;28;20540;-53
2023/12/25 01:50:38;;;;;;;9.45;7.35;;;21.10;99.90;;;;;;5053494;28;20060;-53
2023/12/25 01:53:04;;;;;;;9.95;7.32;;;21.10;99.90;;;;;;5053592;28;20029;-53
2023/12/25 01:55:31;;;;;;;9.68;7.43;;;21.10;99.90;;;;;;5053650;28;20029;-52
2023/12/25 01:57:56;;;;;;;8.38;6.93;;;21.10;99.90;;;;;;5052531;28;20021;-52
2023/12/25 02:00:22;;;;;;;10.20;7.90;;;21.10;99.90;;;;;;5068565;22;20391;-51
2023/12/25 02:02:49;;;;;;;8.43;7.30;;;21.00;99.90;;;;;;5093780;28;20120;-52
2023/12/25 02:05:16;;;;;;;9.10;6.65;;;21.00;99.90;;;;;;5093421;28;20107;-51
2023/12/25 02:07:44;;;;;;;9.00;7.43;;;21.10;99.90;;;;;;5092086;28;20024;-49
2023/12/25 02:10:10;;;;;;;7.95;7.10;;;21.00;99.90;;;;;;5092119;28;20411;-50
2023/12/25 02:12:36;;;;;;;8.25;6.93;;;21.00;99.90;;;;;;5093500;28;20035;-49
2023/12/25 02:15:06;;;;;;;8.70;7.00;;;21.00;99.90;;;;;;5093556;28;20099;-49
2023/12/25 02:17:33;;;;;;;8.73;6.93;;;21.00;99.90;;;;;;5093223;28;20473;-49
2023/12/25 02:19:59;;;;;;;8.73;7.30;;;21.00;99.90;;;;;;5093244;28;20020;-49
2023/12/25 02:22:25;;;;;;;8.20;6.70;;;21.00;99.90;;;;;;5092259;28;20115;-49
2023/12/25 02:25:01;;;;;;;9.60;6.97;;;21.00;99.90;;;;;;5093078;28;20119;-49
2023/12/25 02:27:27;;;;;;;8.57;6.97;;;21.00;99.90;;;;;;5093438;28;20024;-50
2023/12/25 02:29:53;;;;;;;8.75;7.60;;;20.90;99.90;;;;;;5093020;28;20055;-50
2023/12/25 02:32:19;;;;;;;7.85;6.93;;;20.90;99.90;;;;;;5093017;28;20063;-50
2023/12/25 02:34:47;;;;;;;7.43;6.32;;;20.90;99.90;;;;;;5093030;28;20032;-50
2023/12/25 02:37:15;;;;;;;;;;;20.90;99.90;;;;;;5075680;28;20020;-50
2023/12/25 02:39:41;;;;;;;6.95;6.25;;;20.90;99.90;;;;;;5093049;28;19999;-50
2023/12/25 02:42:07;;;;;;;8.07;7.20;;;20.90;99.90;;;;;;5092885;28;20052;-50
2023/12/25 02:44:33;;;;;;;8.05;6.78;;;20.90;99.90;;;;;;5092807;28;20066;-50
2023/12/25 02:46:58;;;;;;;8.35;7.05;;;20.90;99.90;;;;;;5092247;28;20028;-50
2023/12/25 02:49:24;;;;;;;9.07;6.85;;;20.90;99.90;;;;;;5093024;28;20021;-50
2023/12/25 02:51:50;;;;;;;8.38;6.68;;;20.90;99.90;;;;;;5092766;28;20472;-50
2023/12/25 02:54:16;;;;;;;8.90;6.95;;;20.80;99.90;;;;;;5092878;28;20020;-50
2023/12/25 02:56:42;;;;;;;7.28;6.50;;;20.80;99.90;;;;;;5092714;28;20020;-52
2023/12/25 02:59:07;;;;;;;8.27;7.13;;;20.80;99.90;;;;;;5092612;28;20152;-51
2023/12/25 03:01:33;;;;;;;8.80;6.50;;;20.80;99.90;;;;;;5104053;22;20048;-53
2023/12/25 03:03:59;;;;;;;10.55;7.22;;;20.80;99.90;;;;;;5092729;28;20456;-53
2023/12/25 03:06:25;;;;;;;8.95;6.85;;;20.80;99.90;;;;;;5092471;28;20109;-53
2023/12/25 03:08:52;;;;;;;8.48;6.10;;;20.80;99.90;;;;;;5092408;28;20093;-53
2023/12/25 03:11:17;;;;;;;9.05;7.03;;;20.80;99.90;;;;;;5092680;28;20028;-53
2023/12/25 03:13:43;;;;;;;8.20;7.40;;;20.80;99.90;;;;;;5092591;28;20028;-53
2023/12/25 03:16:09;;;;;;;8.02;6.43;;;20.80;99.90;;;;;;5092482;28;20456;-53
2023/12/25 03:18:35;;;;;;;8.30;5.72;;;20.80;99.90;;;;;;5092315;28;20028;-53
2023/12/25 03:21:01;;;;;;;8.43;6.68;;;20.70;99.90;;;;;;5092510;28;20035;-52
2023/12/25 03:23:26;;;;;;;8.98;7.18;;;20.80;99.90;;;;;;5092289;28;20020;-52
2023/12/25 03:25:52;;;;;;;7.75;6.68;;;20.70;99.90;;;;;;5092149;28;20036;-54
2023/12/25 03:28:18;;;;;;;9.70;7.18;;;20.70;99.90;;;;;;5092510;28;20095;-53
2023/12/25 03:30:44;;;;;;;7.00;6.28;;;20.70;99.90;;;;;;5092357;28;20028;-52
2023/12/25 03:33:10;;;;;;;8.02;7.05;;;20.70;99.90;;;;;;5092296;28;20032;-52
2023/12/25 03:35:35;;;;;;;7.80;6.65;;;20.70;99.90;;;;;;5090926;28;20024;-53
2023/12/25 03:38:01;;;;;;;7.85;6.82;;;20.70;99.90;;;;;;5092099;28;20024;-53
2023/12/25 03:40:27;;;;;;;7.53;5.95;;;20.70;99.90;;;;;;5092054;28;20036;-53
2023/12/25 03:42:54;;;;;;;7.05;5.93;;;20.70;99.90;;;;;;5092112;28;20040;-52
2023/12/25 03:45:20;;;;;;;7.25;5.80;;;20.70;99.90;;;;;;5092049;28;20183;-53
2023/12/25 03:47:46;;;;;;;7.68;5.93;;;20.70;99.90;;;;;;5092353;28;20105;-53
2023/12/25 03:50:11;;;;;;;7.88;5.85;;;20.60;99.90;;;;;;5092130;28;20028;-52
2023/12/25 03:52:37;;;;;;;6.65;5.80;;;20.70;99.90;;;;;;5092016;28;20020;-53
2023/12/25 03:55:03;;;;;;;6.78;5.93;;;20.60;99.90;;;;;;5092073;28;20038;-53
2023/12/25 03:57:29;;;;;;;7.78;6.07;;;20.60;99.90;;;;;;5092243;28;20522;-53
2023/12/25 03:59:55;;;;;;;7.53;5.50;;;20.60;99.90;;;;;;5096025;28;20032;-52
2023/12/25 04:02:20;;;;;;;7.43;6.30;;;20.60;99.90;;;;;;5096468;28;20495;-53
2023/12/25 04:04:47;;;;;;;6.95;5.60;;;20.60;99.90;;;;;;5096040;28;20032;-52
2023/12/25 04:07:14;;;;;;;6.78;5.13;;;20.60;99.90;;;;;;5095778;28;20078;-52
2023/12/25 04:09:41;;;;;;;6.65;5.68;;;20.60;99.90;;;;;;5095974;28;20368;-52
2023/12/25 04:12:07;;;;;;;7.88;5.50;;;20.60;99.90;;;;;;5077564;28;20055;-52
2023/12/25 04:14:37;;;;;;;7.80;5.50;;;20.60;99.90;;;;;;5095798;28;20044;-53
2023/12/25 04:17:03;;;;;;;5.82;4.93;;;20.60;99.90;;;;;;5077647;28;20078;-52
2023/12/25 04:19:29;;;;;;;6.47;5.70;;;20.50;99.90;;;;;;5095668;28;20476;-52
2023/12/25 04:21:54;;;;;;;7.03;5.72;;;20.60;99.90;;;;;;5095567;28;20102;-52
2023/12/25 04:24:20;;;;;;;6.88;6.18;;;20.50;99.90;;;;;;5095786;28;20039;-52
2023/12/25 04:26:46;;;;;;;6.97;5.43;;;20.50;99.90;;;;;;5095473;28;20429;-52
2023/12/25 04:29:12;;;;;;;9.73;5.65;;;20.50;99.90;;;;;;5095516;28;20024;-52
2023/12/25 04:31:37;;;;;;;6.93;6.00;;;20.50;99.90;;;;;;5095333;28;20070;-51
2023/12/25 04:34:03;;;;;;;6.53;5.35;;;20.50;99.90;;;;;;5095367;28;20024;-54
2023/12/25 04:36:29;;;;;;;6.97;5.65;;;20.50;99.90;;;;;;5095184;28;20095;-52
2023/12/25 04:38:55;;;;;;;6.50;5.80;;;20.50;99.90;;;;;;5095318;28;20027;-52
2023/12/25 04:41:22;;;;;;;6.60;5.65;;;20.50;99.90;;;;;;5095351;28;20028;-52
2023/12/25 04:43:50;;;;;;;6.38;5.47;;;20.50;99.90;;;;;;5095235;28;20016;-52
2023/12/25 04:46:16;;;;;;;6.93;6.10;;;20.50;99.90;;;;;;5095030;28;20035;-52
2023/12/25 04:48:42;;;;;;;7.40;6.13;;;20.50;99.90;;;;;;5095088;28;20017;-52
2023/12/25 04:51:08;;;;;;;5.40;4.90;;;20.50;99.90;;;;;;5095079;28;20385;-53
2023/12/25 04:53:36;;;;;;;6.53;5.30;;;20.50;99.90;;;;;;5095108;28;20016;-53
2023/12/25 04:56:02;;;;;;;6.70;5.80;;;20.40;99.90;;;;;;5076967;28;20035;-52
2023/12/25 04:58:28;;;;;;;6.97;5.53;;;20.40;99.90;;;;;;5094826;28;20024;-53
2023/12/25 05:00:54;;;;;;;6.68;5.32;;;20.40;99.90;;;;;;5094876;28;20044;-53
2023/12/25 05:03:21;;;;;;;6.47;5.30;;;20.40;99.90;;;;;;5095049;28;20020;-53
2023/12/25 05:05:48;;;;;;;6.00;5.37;;;20.40;99.90;;;;;;5094617;28;20488;-52
2023/12/25 05:08:14;;;;;;;6.22;5.57;;;20.40;99.90;;;;;;5094722;28;20024;-52
2023/12/25 05:10:40;;;;;;;7.07;5.47;;;20.40;99.90;;;;;;5076119;28;20434;-52
2023/12/25 05:13:06;;;;;;;7.35;5.85;;;20.40;99.90;;;;;;5094553;28;20025;-52
2023/12/25 05:15:31;;;;;;;8.25;5.75;;;20.40;99.90;;;;;;5094503;28;20047;-52
2023/12/25 05:17:57;;;;;;;6.25;5.63;;;20.40;99.90;;;;;;5094367;28;20059;-52
2023/12/25 05:20:23;;;;;;;6.13;5.28;;;20.40;99.90;;;;;;5094641;28;20031;-52
2023/12/25 05:22:49;;;;;;;6.88;5.63;;;20.30;99.90;;;;;;5076238;28;20070;-52
2023/12/25 05:25:14;;;;;;;6.85;5.45;;;20.30;99.90;;;;;;5094297;28;20349;-52
2023/12/25 05:27:40;;;;;;;7.75;5.57;;;20.30;99.90;;;;;;5094344;28;20390;-54
2023/12/25 05:30:07;;;;;;;5.90;5.30;;;20.40;99.90;;;;;;5094261;28;20056;-52
2023/12/25 05:32:35;;;;;;;6.57;5.72;;;20.30;99.90;;;;;;5076114;28;20028;-52
2023/12/25 05:35:01;;;;;;;7.07;5.20;;;20.30;99.90;;;;;;5092968;28;20024;-52
2023/12/25 05:37:27;;;;;;;6.38;5.35;;;20.30;99.90;;;;;;5094292;28;20097;-52
2023/12/25 05:39:52;;;;;;;6.22;5.13;;;20.30;99.90;;;;;;5094310;28;20046;-52
2023/12/25 05:42:19;;;;;;;5.43;4.93;;;20.30;99.90;;;;;;5094082;28;20050;-53
2023/12/25 05:44:45;;;;;;;6.50;5.15;;;20.30;99.90;;;;;;5093970;28;20017;-52
2023/12/25 05:47:10;;;;;;;5.13;4.60;;;20.30;99.90;;;;;;5094115;28;20105;-53
2023/12/25 05:49:36;;;;;;;7.60;5.80;;;20.30;99.90;;;;;;5093884;28;20016;-53
2023/12/25 05:52:02;;;;;;;6.93;5.38;;;20.20;99.90;;;;;;5093822;28;20379;-53
2023/12/25 05:54:28;;;;;;;6.13;5.20;;;20.20;99.90;;;;;;5093867;28;20515;-54
2023/12/25 05:56:53;;;;;;;7.03;5.72;;;20.20;99.90;;;;;;5094064;28;20024;-53
2023/12/25 05:59:19;;;;;;;5.57;4.97;;;20.20;99.90;;;;;;5093601;28;20027;-53
2023/12/25 06:01:45;;;;;;;6.80;5.22;;;20.20;99.90;;;;;;5092099;28;20523;-53
2023/12/25 06:04:11;;;;;;;5.78;4.68;;;20.20;99.90;;;;;;5093535;28;20040;-53
2023/12/25 06:06:37;;;;;;;5.93;5.28;;;20.20;99.90;;;;;;5093467;28;20111;-53
2023/12/25 06:09:03;;;;;;;6.60;5.90;;;20.20;99.90;;;;;;5093666;28;20043;-53
2023/12/25 06:11:29;;;;;;;6.70;5.85;;;20.20;99.90;;;;;;5093517;28;20116;-53
2023/12/25 06:13:55;;;;;;;5.80;5.00;;;20.10;99.90;;;;;;5093772;28;20017;-53
2023/12/25 06:16:20;;;;;;;7.03;5.10;;;20.10;99.90;;;;;;5093344;28;20496;-53
2023/12/25 06:18:46;;;;;;;6.35;5.47;;;20.10;99.90;;;;;;5093228;28;20024;-53
2023/12/25 06:21:15;;;;;;;6.75;5.18;;;20.10;99.90;;;;;;5092681;28;20472;-53
2023/12/25 06:23:41;;;;;;;6.25;5.03;;;20.10;99.90;;;;;;5074986;28;20020;-51
2023/12/25 06:26:06;;;;;;;6.70;5.00;;;20.10;99.90;;;;;;5075080;28;20043;-53
2023/12/25 06:28:32;;;;;;;5.35;4.82;;;20.10;99.90;;;;;;5091907;28;20020;-53
2023/12/25 06:30:58;;;;;;;5.85;4.70;;;20.10;99.90;;;;;;5093156;28;20032;-54
2023/12/25 06:33:24;;;;;;;5.78;5.15;;;20.10;99.90;;;;;;5093404;28;20055;-53
2023/12/25 06:35:49;;;;;;;8.43;5.60;;;20.10;99.90;;;;;;5092998;28;20053;-53
2023/12/25 06:38:15;;;;;;;6.05;5.45;;;20.10;99.90;;;;;;5093090;28;20043;-53
2023/12/25 06:40:41;;;;;;;6.40;5.38;;;20.10;99.90;;;;;;5093020;28;20362;-53
2023/12/25 06:43:07;;;;;;;6.35;4.55;;;20.00;99.90;;;;;;5092849;28;20102;-53
2023/12/25 06:45:34;;;;;;;6.00;5.30;;;20.00;99.90;;;;;;5074886;28;20610;-53
2023/12/25 06:48:00;;;;;;;6.00;4.53;;;20.00;99.90;;;;;;5092920;28;20077;-53
2023/12/25 06:50:26;;;;;;;5.68;5.07;;;20.00;99.90;;;;;;5092995;28;20035;-53
2023/12/25 06:52:52;;;;;;;6.30;4.93;;;20.00;99.90;;;;;;5092780;28;20028;-53
2023/12/25 06:55:18;;;;;;;5.93;4.57;;;20.00;99.90;;;;;;5092718;28;20025;-53
2023/12/25 06:57:43;;;;;;;7.43;4.88;;;20.00;99.90;;;;;;5092656;28;20464;-53
2023/12/25 07:00:10;;;;;;;5.82;4.78;;;20.00;99.90;;;;;;5074455;28;20020;-57
2023/12/25 07:02:37;;;;;;;5.45;4.70;;;20.00;99.90;;;;;;5092646;28;20047;-53
2023/12/25 07:05:04;;;;;;;8.13;5.45;;;20.00;99.90;;;;;;5092629;28;20025;-53
2023/12/25 07:07:30;;;;;;;5.90;4.85;;;20.00;99.90;;;;;;5092823;28;20035;-53
2023/12/25 07:09:56;;;;;;;6.82;5.25;;;20.00;99.90;;;;;;5092761;28;20491;-53
2023/12/25 07:12:25;;;;;;;5.43;4.80;;;19.90;99.90;;;;;;5092328;28;20020;-53
2023/12/25 07:14:52;;;;;;;6.57;5.65;;;19.90;99.90;;;;;;5092301;28;20460;-53
2023/12/25 07:17:18;;;;;;;7.03;6.07;;;19.90;99.90;;;;;;5092483;28;20024;-53
2023/12/25 07:19:43;;;;;;;7.68;4.95;;;19.90;99.90;;;;;;5092217;28;20028;-52
2023/12/25 07:22:13;;;;;;;5.93;4.32;;;19.90;99.90;;;;;;5074245;28;20043;-52
2023/12/25 07:24:38;;;;;;;6.25;5.65;;;19.90;99.90;;;;;;5092281;28;20480;-53
2023/12/25 07:27:08;;;;;;;8.13;4.85;;;19.90;99.90;;;;;;5092237;28;20060;-52
2023/12/25 07:29:34;;;;;;;6.95;4.40;;;19.90;99.90;;;;;;5092238;28;20023;-53
2023/12/25 07:32:00;;;;;;;5.45;4.57;;;19.90;99.90;;;;;;5092405;28;20024;-52
2023/12/25 07:34:25;;;;;;;5.43;4.90;;;19.90;99.90;;;;;;5095621;28;20027;-52
2023/12/25 07:36:51;;;;;;;6.25;5.22;;;19.90;99.90;;;;;;5096405;28;20486;-53
2023/12/25 07:39:17;;;;;;;8.43;5.63;;;19.90;99.90;;;;;;5096447;28;20492;-52
2023/12/25 07:41:45;;;;;;;6.00;5.05;;;19.90;99.90;;;;;;5096328;28;20098;-53
2023/12/25 07:44:16;;;;;;;7.30;5.85;;;19.90;99.90;;;;;;5096153;28;20085;-52
2023/12/25 07:46:42;;;;;;;6.68;5.15;;;19.90;99.90;;;;;;5096180;28;20055;-53
2023/12/25 07:49:07;;;;;;;5.50;4.85;;;19.90;99.90;;;;;;5096235;28;20479;-51
2023/12/25 07:51:33;;;;;;;5.55;4.75;;;19.80;99.90;;;;;;5096214;28;20034;-52
2023/12/25 07:53:59;;;;;;;5.93;5.32;;;19.90;99.90;;;;;;5096346;28;20046;-52
2023/12/25 07:56:25;;;;;;;7.07;4.90;;;19.90;99.90;;;;;;5095922;28;20032;-52
2023/12/25 07:58:51;;;;;;;5.68;4.93;;;19.90;99.90;;;;;;5096019;28;20024;-52
2023/12/25 08:01:22;;;;;;;5.97;4.78;;;19.90;99.90;;;;;;5095840;28;20048;-52
2023/12/25 08:03:49;;;;;;;5.28;4.43;;;19.90;99.90;;;;;;5096043;28;20428;-52
2023/12/25 08:06:15;;;;;;;5.43;4.90;;;19.90;99.90;;;;;;5095787;28;20028;-51
2023/12/25 08:08:41;;;;;;;5.38;4.88;;;20.00;99.90;;;;;;5095912;28;20089;-52
2023/12/25 08:11:06;;;;;;;5.20;4.47;;;19.90;99.90;;;;;;5077940;28;20111;-52
2023/12/25 08:13:32;;;;;;;6.18;4.85;;;20.00;99.90;;;;;;5077973;28;20081;-52
2023/12/25 08:15:58;;;;;;;5.80;4.75;;;20.00;99.90;;;;;;5095783;28;20448;-53
2023/12/25 08:18:24;;;;;;;5.03;4.35;;;20.10;99.90;;;;;;5095713;28;20032;-52
2023/12/25 08:20:49;;;;;;;5.68;4.60;;;20.10;99.90;;;;;;5095642;28;20514;-51
2023/12/25 08:23:15;;;;;;;6.57;4.60;;;20.10;99.90;;;;;;5094226;28;20533;-52
2023/12/25 08:25:41;;;;;;;4.95;4.45;;;20.10;99.90;;;;;;5095625;28;20100;-52
2023/12/25 08:28:07;;;;;;;6.43;4.88;;;20.20;99.90;;;;;;5095415;28;20464;-52
2023/12/25 08:30:33;;;;;;;5.57;4.93;;;20.20;99.90;;;;;;5094356;28;20384;-52
2023/12/25 08:32:59;;;;;;;5.47;4.60;;;20.20;99.90;;;;;;5095389;28;20476;-52
2023/12/25 08:35:24;;;;;;;5.93;5.05;;;20.30;99.90;;;;;;5095348;28;20028;-51
2023/12/25 08:37:50;;;;;;;6.78;4.70;;;20.30;99.90;;;;;;5095313;28;20477;-52
2023/12/25 08:40:16;;;;;;;5.55;4.43;;;20.30;99.90;;;;;;5095200;28;20043;-53
2023/12/25 08:42:42;;;;;;;7.03;5.00;;;20.40;99.90;;;;;;5076897;28;20028;-52
2023/12/25 08:45:08;;;;;;;5.18;4.68;;;20.40;99.90;;;;;;5094002;28;20056;-53
2023/12/25 08:47:34;;;;;;;7.50;4.95;;;20.40;99.90;;;;;;5095202;28;20032;-52
2023/12/25 08:50:00;;;;;;;6.57;4.63;;;20.40;99.90;;;;;;5095053;28;20565;-53
2023/12/25 08:52:26;;;;;;;5.15;4.60;;;20.50;99.90;;;;;;5094971;28;20205;-53
2023/12/25 08:54:51;;;;;;;6.43;4.93;;;20.50;99.90;;;;;;5094934;28;20032;-52
2023/12/25 08:57:17;;;;;;;6.80;5.70;;;20.50;99.90;;;;;;5094916;28;20105;-52
2023/12/25 08:59:45;;;;;;;5.03;4.30;;;20.60;99.90;;;;;;5094760;28;20017;-52
2023/12/25 09:02:11;;;;;;;8.77;5.35;;;20.60;99.90;;;;;;5094558;28;20036;-54
2023/12/25 09:04:37;;;;;;;6.10;5.25;;;20.60;99.90;;;;;;5094718;28;20495;-52
2023/12/25 09:07:03;;;;;;;5.20;4.55;;;20.70;99.90;;;;;;5094871;28;20043;-52
2023/12/25 09:09:28;;;;;;;6.03;4.80;;;20.70;99.90;;;;;;5094642;28;20071;-52
2023/12/25 09:11:54;;;;;;;5.10;4.60;;;20.70;99.90;;;;;;5094635;28;20483;-52
2023/12/25 09:14:20;;;;;;;5.97;5.10;;;20.70;99.90;;;;;;5094533;28;20376;-52
2023/12/25 09:16:47;;;;;;;6.47;5.05;;;20.80;99.90;;;;;;5094652;28;20107;-51
2023/12/25 09:19:12;;;;;;;6.28;4.93;;;20.80;99.90;;;;;;5094297;28;20077;-51
2023/12/25 09:21:39;;;;;;;5.18;4.60;;;20.90;99.90;;;;;;5094322;28;20024;-52
2023/12/25 09:24:05;;;;;;;6.95;4.85;;;20.90;99.90;;;;;;5094548;28;20500;-53
2023/12/25 09:26:31;;;;;;;5.18;4.65;;;20.90;99.90;;;;;;5076101;28;20032;-52
2023/12/25 09:28:57;;;;;;;6.45;4.75;;;21.00;99.90;;;;;;5094311;28;20026;-52
2023/12/25 09:31:23;;;;;;;5.95;4.80;;;21.00;99.90;;;;;;5094228;28;20024;-53
2023/12/25 09:33:48;;;;;;;5.03;4.53;;;21.00;99.90;;;;;;5094157;28;20642;-53
2023/12/25 09:36:14;;;;;;;5.80;4.93;;;21.10;99.90;;;;;;5094117;28;20388;-53
2023/12/25 09:38:40;;;;;;;5.57;4.38;;;21.10;99.90;;;;;;5094066;28;20028;-52
2023/12/25 09:41:13;;;;;;;8.40;5.78;;;21.10;99.90;;;;;;5094331;28;20028;-53
2023/12/25 09:43:41;;;;;;;6.60;4.90;;;21.10;99.90;;;;;;5093930;28;20023;-55
2023/12/25 09:46:10;;;;;;;6.30;5.35;;;21.20;99.90;;;;;;5094064;28;20035;-54
2023/12/25 09:48:38;;;;;;;6.07;5.00;;;21.20;99.90;;;;;;5094036;28;20020;-52
2023/12/25 09:51:05;;;;;;;6.50;5.38;;;21.20;99.90;;;;;;5093869;28;20016;-51
2023/12/25 09:53:31;;;;;;;5.28;4.30;;;21.30;99.90;;;;;;5093870;28;20031;-52
2023/12/25 09:55:59;;;;;;;7.93;4.65;;;21.30;99.90;;;;;;5093514;28;20030;-51
2023/12/25 09:58:26;;;;;;;;;;;21.40;99.90;;;;;;5076134;28;20099;-52
2023/12/25 10:00:54;;;;;;;5.72;4.88;;;21.40;99.90;;;;;;5093546;28;20435;-51
2023/12/25 10:03:20;;;;;;;5.45;4.80;;;21.40;99.90;;;;;;5093538;28;20032;-52
2023/12/25 10:05:46;;;;;;;7.30;5.03;;;21.50;99.90;;;;;;5093629;28;20492;-52
2023/12/25 10:08:12;;;;;;;7.65;5.78;;;21.50;99.90;;;;;;5093517;28;20047;-53
2023/12/25 10:10:38;;;;;;;6.30;5.07;;;21.50;99.90;;;;;;5093707;28;20103;-52
2023/12/25 10:13:04;;;;;;;7.45;5.25;;;21.60;99.90;;;;;;5093368;28;20066;-51
2023/12/25 10:15:30;;;;;;;5.60;4.72;;;21.60;99.90;;;;;;5093243;28;20020;-53
2023/12/25 10:18:06;;;;;;;5.30;4.80;;;21.70;99.90;;;;;;5093281;28;20065;-51
2023/12/25 10:20:32;;;;;;;6.32;4.40;;;21.70;99.90;;;;;;5093286;28;20349;-52
2023/12/25 10:22:59;;;;;;;6.15;4.75;;;21.70;99.90;;;;;;5093308;28;20150;-52
2023/12/25 10:25:30;;;;;;;5.28;4.55;;;21.70;99.90;;;;;;5093138;28;20031;-53
2023/12/25 10:27:56;;;;;;;5.07;4.50;;;21.80;99.90;;;;;;5093292;28;20028;-53
2023/12/25 10:30:25;;;;;;;6.05;4.63;;;21.90;99.90;;;;;;5093168;28;20400;-54
2023/12/25 10:33:09;;;;;;;5.20;4.70;;;21.90;99.90;;;;;;5093053;28;20396;-54
2023/12/25 10:35:35;;;;;;;4.80;4.30;;;22.00;99.90;;;;;;5092911;28;20028;-53
2023/12/25 10:38:05;;;;;;;5.47;4.43;;;22.00;99.90;;;;;;5092991;28;20031;-53
2023/12/25 10:40:31;;;;;;;7.28;4.68;;;22.10;99.90;;;;;;5092901;28;20047;-52
2023/12/25 10:42:58;;;;;;;5.95;4.93;;;22.10;99.90;;;;;;5092821;28;20052;-52
2023/12/25 10:45:30;;;;;;;5.55;4.78;;;22.10;99.90;;;;;;5092692;28;20036;-53
2023/12/25 10:47:58;;;;;;;6.28;4.60;;;22.20;99.90;;;;;;5092721;28;20024;-51
2023/12/25 10:50:26;;;;;;;6.38;4.90;;;22.30;99.90;;;;;;5074871;28;20512;-52
2023/12/25 10:52:53;;;;;;;6.03;4.90;;;22.30;99.90;;;;;;5092710;28;20103;-52
2023/12/25 10:55:37;;;;;;;7.30;5.20;;;22.30;99.90;;;;;;5092608;28;20443;-52
2023/12/25 10:58:10;;;;;;;5.85;4.85;;;22.40;99.90;;;;;;5091697;28;20545;-52
2023/12/25 11:00:42;;;;;;;7.68;5.05;;;22.40;99.90;;;;;;5092621;28;20038;-53
2023/12/25 11:03:12;;;;;;;7.13;5.10;;;22.50;99.90;;;;;;5074604;28;20122;-51
2023/12/25 11:05:39;;;;;;;6.38;5.07;;;22.50;99.90;;;;;;5092642;28;20032;-54
2023/12/25 11:08:05;;;;;;;5.63;5.05;;;22.50;99.90;;;;;;5091868;28;20103;-53
2023/12/25 11:10:31;;;;;;;5.97;5.38;;;22.60;99.90;;;;;;5092411;28;20105;-53
2023/12/25 11:12:58;;;;;;;7.93;5.45;;;22.60;99.90;;;;;;5092577;28;20081;-53
2023/12/25 11:15:24;;;;;;;6.82;5.22;;;22.60;99.90;;;;;;5092263;28;20020;-52
2023/12/25 11:17:51;;;;;;;7.63;5.97;;;22.70;99.90;;;;;;5092363;28;20024;-52
2023/12/25 11:20:17;;;;;;;7.32;5.32;;;22.70;99.90;;;;;;5092416;28;20028;-53
2023/12/25 11:22:46;;;;;;;6.55;5.53;;;22.70;99.90;;;;;;5092448;28;20024;-52
2023/12/25 11:25:18;;;;;;;7.25;5.53;;;22.70;99.90;;;;;;5092410;28;20067;-52
2023/12/25 11:27:54;;;;;;;6.78;5.43;;;22.80;99.90;;;;;;5092444;28;20073;-53
2023/12/25 11:30:23;;;;;;;7.60;5.80;;;22.80;99.90;;;;;;5092214;28;20113;-52
2023/12/25 11:32:50;;;;;;;8.35;5.65;;;22.90;99.90;;;;;;5092225;28;20028;-52
2023/12/25 11:35:33;;;;;;;9.05;5.88;;;22.90;99.90;;;;;;5092068;28;20042;-52
2023/12/25 11:38:18;;;;;;;8.98;5.35;;;22.90;99.90;;;;;;5092077;28;20078;-53
2023/12/25 11:40:45;;;;;;;6.65;5.57;;;22.90;99.90;;;;;;5092356;28;20073;-52
2023/12/25 11:43:16;;;;;;;7.20;5.50;;;23.00;99.90;;;;;;5092252;28;20028;-52
2023/12/25 11:45:46;;;;;;;8.32;5.38;;;23.00;99.90;;;;;;5092270;28;20284;-52
2023/12/25 11:48:12;;;;;;;9.30;6.07;;;23.10;99.90;;;;;;5092205;28;20023;-53
2023/12/25 11:50:38;;;;;;;7.50;5.18;;;23.10;99.90;;;;;;5091939;28;20020;-53
2023/12/25 11:53:04;;;;;;;9.35;6.13;;;23.10;99.90;;;;;;5092019;28;20016;-52
2023/12/25 11:55:30;;;;;;;8.30;5.80;;;23.10;99.90;;;;;;5092046;28;20031;-53
2023/12/25 11:57:58;;;;;;;7.88;5.72;;;23.10;99.90;;;;;;5091876;28;20065;-52
2023/12/25 12:00:26;;;;;;;7.22;5.45;;;23.20;99.90;;;;;;5091833;28;20460;-52
2023/12/25 12:02:52;;;;;;;8.98;5.63;;;23.20;99.90;;;;;;5091748;28;20052;-52
2023/12/25 12:05:19;;;;;;;8.40;5.82;;;23.20;99.90;;;;;;5091728;28;20024;-52
2023/12/25 12:07:45;;;;;;;7.47;5.53;;;23.20;99.90;;;;;;5092002;28;20062;-52
2023/12/25 12:10:14;;;;;;;9.38;5.53;;;23.30;99.90;;;;;;5091998;28;20480;-52
2023/12/25 12:12:41;;;;;;;7.05;5.53;;;23.30;99.90;;;;;;5091701;28;20035;-52
2023/12/25 12:15:08;;;;;;;6.95;5.57;;;23.40;99.90;;;;;;5073800;28;20024;-51
2023/12/25 12:17:35;;;;;;;8.00;5.60;;;23.40;99.90;;;;;;5091822;28;20024;-51
2023/12/25 12:20:05;;;;;;;6.57;5.30;;;23.40;99.90;;;;;;5094048;28;20032;-52
2023/12/25 12:22:32;;;;;;;7.00;5.55;;;23.40;99.90;;;;;;5095386;28;20028;-51
2023/12/25 12:25:14;;;;;;;8.60;5.88;;;23.40;99.90;;;;;;5077388;28;20035;-52
2023/12/25 12:27:41;;;;;;;8.65;5.25;;;23.50;99.90;;;;;;5095405;28;20024;-52
2023/12/25 12:30:08;;;;;;;7.43;5.07;;;23.50;99.90;;;;;;5077559;28;20367;-52
2023/12/25 12:32:34;;;;;;;8.35;5.38;;;23.50;99.90;;;;;;5095309;28;20024;-51
2023/12/25 12:35:00;;;;;;;6.40;4.70;;;23.50;99.90;;;;;;5095339;28;20380;-51
2023/12/25 12:37:26;;;;;;;6.32;5.25;;;23.60;99.90;;;;;;5093897;28;20257;-52
2023/12/25 12:39:52;;;;;;;7.10;5.07;;;23.60;99.90;;;;;;5077067;28;20020;-51
2023/12/25 12:42:21;;;;;;;8.38;5.45;;;23.60;99.90;;;;;;5095087;28;20418;-52